createdAt,value
2019-02-15T00:02:24.946Z,4.02
2019-02-15T00:04:58.350Z,3.98
2019-02-15T00:07:31.764Z,3.94
2019-02-15T00:10:06.643Z,3.90
2019-02-15T00:12:40.054Z,3.90
2019-02-15T00:15:13.517Z,3.90
2019-02-15T00:17:51.744Z,3.90
2019-02-15T00:20:32.657Z,3.88
2019-02-15T00:23:06.102Z,3.74
2019-02-15T00:25:39.587Z,3.72
2019-02-15T00:28:13.038Z,3.73
2019-02-15T00:30:46.423Z,3.72
2019-02-15T00:33:19.892Z,3.72
2019-02-15T00:35:53.280Z,3.75
2019-02-15T00:38:26.638Z,3.75
2019-02-15T00:40:59.951Z,3.75
2019-02-15T00:43:33.342Z,3.75
2019-02-15T00:46:08.426Z,3.75
2019-02-15T00:48:41.926Z,3.74
2019-02-15T00:51:19.660Z,3.72
2019-02-15T00:53:54.708Z,3.68
2019-02-15T00:56:48.034Z,3.65
2019-02-15T00:59:23.004Z,3.62
2019-02-15T01:01:58.064Z,3.60
2019-02-15T01:04:35.908Z,3.60
2019-02-15T01:07:16.635Z,3.59
2019-02-15T01:09:54.466Z,3.58
2019-02-15T01:12:29.944Z,3.55
2019-02-15T01:15:03.794Z,3.55
2019-02-15T01:17:37.207Z,3.51
2019-02-15T01:20:10.602Z,3.52
2019-02-15T01:22:44.023Z,3.51
2019-02-15T01:25:17.501Z,3.43
2019-02-15T01:27:58.149Z,3.37
2019-02-15T01:30:51.306Z,3.35
2019-02-15T01:33:26.372Z,3.37
2019-02-15T01:36:19.571Z,3.36
2019-02-15T01:38:54.549Z,3.35
2019-02-15T01:41:29.515Z,3.37
2019-02-15T01:44:04.793Z,3.36
2019-02-15T01:46:42.757Z,3.39
2019-02-15T01:49:17.071Z,3.37
2019-02-15T01:51:50.486Z,3.34
2019-02-15T01:54:23.888Z,3.31
2019-02-15T01:56:57.303Z,3.28
2019-02-15T01:59:30.664Z,3.27
2019-02-15T02:02:04.353Z,3.23
2019-02-15T02:04:37.736Z,3.26
2019-02-15T02:07:11.343Z,3.26
2019-02-15T02:09:44.808Z,3.27
2019-02-15T02:12:18.270Z,3.25
2019-02-15T02:14:51.616Z,3.23
2019-02-15T02:17:24.957Z,3.23
2019-02-15T02:19:58.273Z,3.24
2019-02-15T02:22:31.622Z,3.22
2019-02-15T02:25:06.688Z,3.20
2019-02-15T02:27:40.123Z,3.21
2019-02-15T02:30:13.563Z,3.20
2019-02-15T02:32:46.992Z,3.08
2019-02-15T02:35:20.431Z,3.11
2019-02-15T02:37:53.789Z,3.11
2019-02-15T02:40:27.204Z,3.09
2019-02-15T02:43:00.595Z,3.08
2019-02-15T02:45:34.055Z,3.07
2019-02-15T02:48:07.484Z,2.97
2019-02-15T02:50:41.309Z,2.99
2019-02-15T02:53:18.210Z,2.97
2019-02-15T02:55:51.617Z,2.95
2019-02-15T02:58:25.077Z,2.89
2019-02-15T03:00:58.552Z,2.78
2019-02-15T03:03:31.955Z,2.85
2019-02-15T03:06:05.326Z,2.89
2019-02-15T03:08:38.677Z,2.91
2019-02-15T03:11:12.040Z,2.95
2019-02-15T03:13:45.625Z,2.95
2019-02-15T03:16:19.156Z,2.93
2019-02-15T03:18:52.535Z,2.86
2019-02-15T03:21:26.003Z,2.86
2019-02-15T03:23:59.443Z,2.85
2019-02-15T03:26:32.854Z,2.85
2019-02-15T03:29:06.266Z,2.66
2019-02-15T03:31:39.609Z,2.66
2019-02-15T03:34:13.057Z,2.72
2019-02-15T03:36:50.830Z,2.75
2019-02-15T03:39:31.570Z,2.73
2019-02-15T03:42:05.103Z,2.70
2019-02-15T03:44:38.601Z,2.68
2019-02-15T03:47:14.047Z,2.70
2019-02-15T03:49:47.416Z,2.71
2019-02-15T03:52:20.950Z,2.71
2019-02-15T03:54:54.307Z,2.61
2019-02-15T03:57:27.734Z,2.52
2019-02-15T04:00:01.306Z,2.56
2019-02-15T04:02:34.736Z,2.58
2019-02-15T04:05:08.331Z,2.59
2019-02-15T04:07:41.828Z,2.61
2019-02-15T04:10:15.269Z,2.59
2019-02-15T04:12:48.728Z,2.54
2019-02-15T04:15:22.210Z,2.59
2019-02-15T04:17:56.048Z,2.62
2019-02-15T04:20:29.427Z,2.62
2019-02-15T04:23:02.764Z,2.64
2019-02-15T04:25:36.303Z,2.57
2019-02-15T04:28:09.701Z,2.49
2019-02-15T04:30:43.104Z,2.50
2019-02-15T04:33:16.585Z,2.50
2019-02-15T04:35:49.962Z,2.53
2019-02-15T04:38:23.319Z,2.44
2019-02-15T04:40:56.699Z,2.45
2019-02-15T04:43:31.772Z,2.49
2019-02-15T04:46:05.239Z,2.45
2019-02-15T04:48:38.613Z,2.45
2019-02-15T04:51:11.971Z,2.47
2019-02-15T04:53:45.334Z,2.39
2019-02-15T04:56:18.825Z,2.31
2019-02-15T04:58:52.161Z,2.35
2019-02-15T05:01:25.706Z,2.35
2019-02-15T05:03:59.188Z,2.33
2019-02-15T05:06:32.635Z,2.32
2019-02-15T05:09:06.289Z,2.36
2019-02-15T05:11:39.712Z,2.38
2019-02-15T05:14:13.201Z,2.38
2019-02-15T05:16:46.524Z,2.41
2019-02-15T05:19:19.943Z,2.42
2019-02-15T05:21:53.404Z,2.37
2019-02-15T05:24:26.752Z,2.38
2019-02-15T05:27:00.084Z,2.39
2019-02-15T05:29:33.437Z,2.41
2019-02-15T05:32:06.968Z,2.41
2019-02-15T05:34:40.361Z,2.33
2019-02-15T05:37:13.741Z,2.31
2019-02-15T05:39:47.394Z,2.32
2019-02-15T05:42:20.735Z,2.30
2019-02-15T05:45:03.335Z,2.20
2019-02-15T05:47:29.232Z,2.23
2019-02-15T05:50:02.569Z,2.25
2019-02-15T05:52:36.113Z,2.22
2019-02-15T05:55:09.842Z,2.20
2019-02-15T05:57:43.235Z,2.22
2019-02-15T06:00:16.579Z,2.26
2019-02-15T06:02:49.948Z,2.20
2019-02-15T06:05:23.455Z,2.06
2019-02-15T06:07:56.950Z,2.07
2019-02-15T06:10:30.297Z,2.11
2019-02-15T06:13:03.722Z,2.12
2019-02-15T06:15:37.174Z,2.15
2019-02-15T06:18:10.503Z,2.18
2019-02-15T06:20:43.960Z,2.17
2019-02-15T06:23:17.442Z,2.19
2019-02-15T06:25:50.804Z,2.18
2019-02-15T06:28:24.129Z,2.20
2019-02-15T06:30:57.603Z,2.21
2019-02-15T06:33:31.063Z,2.17
2019-02-15T06:36:04.520Z,1.99
2019-02-15T06:38:37.949Z,1.96
2019-02-15T06:41:12.433Z,2.03
2019-02-15T06:43:45.974Z,2.09
2019-02-15T06:46:19.331Z,2.14
2019-02-15T06:48:52.724Z,2.13
2019-02-15T06:51:26.084Z,2.17
2019-02-15T06:53:59.503Z,2.21
2019-02-15T06:56:32.990Z,2.20
2019-02-15T06:59:23.983Z,2.24
2019-02-15T07:02:01.798Z,2.26
2019-02-15T07:04:36.865Z,2.29
2019-02-15T07:07:10.322Z,2.29
2019-02-15T07:09:43.678Z,2.28
2019-02-15T07:12:17.042Z,2.29
2019-02-15T07:14:50.411Z,2.20
2019-02-15T07:17:23.798Z,2.24
2019-02-15T07:19:57.191Z,2.21
2019-02-15T07:22:30.658Z,2.12
2019-02-15T07:25:04.875Z,2.22
2019-02-15T07:27:38.303Z,2.31
2019-02-15T07:30:15.367Z,2.41
2019-02-15T07:32:48.402Z,2.45
2019-02-15T07:35:21.765Z,2.50
2019-02-15T07:37:55.122Z,2.60
2019-02-15T07:40:28.557Z,2.70
2019-02-15T07:43:01.918Z,2.67
2019-02-15T07:45:42.645Z,2.61
2019-02-15T07:48:10.525Z,2.71
2019-02-15T07:50:43.893Z,2.86
2019-02-15T07:53:17.209Z,3.00
2019-02-15T07:55:50.612Z,3.06
2019-02-15T07:58:23.937Z,3.16
2019-02-15T08:00:57.278Z,3.22
2019-02-15T08:03:30.600Z,3.29
2019-02-15T08:06:04.051Z,3.38
2019-02-15T08:08:37.391Z,3.53
2019-02-15T08:11:10.807Z,3.78
2019-02-15T08:13:44.169Z,4.08
2019-02-15T08:16:17.593Z,4.44
2019-02-15T08:18:51.029Z,4.75
2019-02-15T08:21:24.405Z,4.88
2019-02-15T08:23:57.804Z,4.92
2019-02-15T08:26:31.155Z,5.04
2019-02-15T08:29:04.560Z,5.15
2019-02-15T08:31:37.950Z,5.42
2019-02-15T08:34:11.303Z,5.79
2019-02-15T08:36:44.680Z,6.00
2019-02-15T08:39:17.995Z,6.07
2019-02-15T08:42:01.692Z,6.05
2019-02-15T08:44:26.406Z,5.97
2019-02-15T08:46:59.778Z,6.03
2019-02-15T08:49:33.155Z,6.15
2019-02-15T08:52:06.557Z,6.31
2019-02-15T08:54:39.919Z,6.50
2019-02-15T08:57:13.548Z,6.66
2019-02-15T08:59:46.967Z,6.82
2019-02-15T09:02:21.941Z,7.04
2019-02-15T09:04:55.346Z,7.36
2019-02-15T09:07:28.770Z,7.69
2019-02-15T09:10:02.168Z,8.02
2019-02-15T09:12:35.635Z,8.41
2019-02-15T09:15:12.042Z,8.64
2019-02-15T09:17:45.425Z,8.89
2019-02-15T09:20:18.834Z,9.04
2019-02-15T09:22:52.333Z,9.30
2019-02-15T09:25:25.775Z,9.83
2019-02-15T09:28:03.553Z,10.51
2019-02-15T09:30:37.108Z,10.81
2019-02-15T09:33:10.479Z,10.89
2019-02-15T09:35:43.928Z,10.97
2019-02-15T09:38:17.296Z,11.05
2019-02-15T09:40:50.746Z,11.40
2019-02-15T09:43:24.228Z,12.50
2019-02-15T09:45:57.705Z,13.59
2019-02-15T09:48:31.172Z,14.56
2019-02-15T09:51:04.524Z,15.08
2019-02-15T09:53:37.889Z,15.12
2019-02-15T09:56:11.322Z,14.83
2019-02-15T09:58:44.739Z,14.33
2019-02-15T10:01:18.173Z,13.90
2019-02-15T10:03:51.664Z,13.57
2019-02-15T10:06:25.003Z,13.30
2019-02-15T10:08:58.591Z,13.02
2019-02-15T10:11:31.985Z,12.86
2019-02-15T10:14:05.450Z,12.66
2019-02-15T10:16:38.840Z,12.55
2019-02-15T10:19:12.213Z,12.53
2019-02-15T10:21:45.634Z,12.52
2019-02-15T10:24:19.032Z,12.57
2019-02-15T10:26:52.560Z,12.62
2019-02-15T10:29:25.938Z,12.61
2019-02-15T10:31:59.397Z,12.66
2019-02-15T10:34:32.870Z,12.71
2019-02-15T10:37:06.269Z,12.82
2019-02-15T10:39:39.685Z,12.92
2019-02-15T10:42:13.181Z,13.06
2019-02-15T10:44:46.577Z,13.19
2019-02-15T10:47:25.068Z,13.40
2019-02-15T10:49:55.054Z,13.57
2019-02-15T10:52:28.550Z,13.70
2019-02-15T10:55:04.693Z,13.73
2019-02-15T10:57:38.296Z,13.82
2019-02-15T11:00:31.058Z,14.02
2019-02-15T11:03:04.464Z,14.19
2019-02-15T11:05:37.874Z,14.18
2019-02-15T11:08:11.286Z,14.22
2019-02-15T11:10:44.674Z,14.30
2019-02-15T11:13:17.976Z,14.33
2019-02-15T11:15:51.465Z,14.50
2019-02-15T11:18:24.809Z,14.76
2019-02-15T11:20:58.266Z,14.94
2019-02-15T11:23:31.763Z,14.98
2019-02-15T11:26:05.317Z,15.02
2019-02-15T11:28:38.726Z,14.91
2019-02-15T11:31:12.188Z,15.07
2019-02-15T11:33:45.558Z,15.13
2019-02-15T11:36:18.989Z,15.20
2019-02-15T11:38:52.458Z,15.18
2019-02-15T11:41:25.948Z,15.35
2019-02-15T11:43:59.306Z,15.48
2019-02-15T11:46:33.406Z,15.57
2019-02-15T11:49:06.804Z,15.75
2019-02-15T11:51:40.202Z,15.96
2019-02-15T11:54:23.056Z,16.63
2019-02-15T11:56:48.733Z,17.85
2019-02-15T11:59:22.137Z,17.86
2019-02-15T12:01:55.499Z,17.67
2019-02-15T12:04:28.876Z,17.43
2019-02-15T12:07:02.275Z,17.30
2019-02-15T12:09:35.663Z,17.24
2019-02-15T12:12:10.953Z,17.10
2019-02-15T12:14:44.170Z,17.07
2019-02-15T12:17:17.653Z,16.92
2019-02-15T12:19:51.047Z,17.06
2019-02-15T12:22:24.501Z,17.16
2019-02-15T12:24:57.901Z,17.31
2019-02-15T12:27:31.342Z,17.72
2019-02-15T12:30:09.948Z,18.89
2019-02-15T12:32:43.421Z,20.72
2019-02-15T12:35:16.774Z,21.63
2019-02-15T12:37:50.202Z,22.26
2019-02-15T12:40:23.602Z,21.73
2019-02-15T12:42:57.040Z,20.76
2019-02-15T12:45:30.602Z,20.20
2019-02-15T12:48:04.120Z,19.83
2019-02-15T12:50:37.454Z,19.39
2019-02-15T12:53:10.972Z,19.11
2019-02-15T12:55:44.295Z,18.87
2019-02-15T12:58:17.757Z,18.63
2019-02-15T13:00:51.185Z,18.46
2019-02-15T13:03:24.608Z,18.28
2019-02-15T13:05:58.103Z,18.16
2019-02-15T13:08:31.474Z,18.04
2019-02-15T13:11:04.866Z,17.97
2019-02-15T13:13:38.316Z,17.86
2019-02-15T13:16:11.715Z,17.76
2019-02-15T13:18:45.103Z,17.72
2019-02-15T13:21:18.583Z,17.57
2019-02-15T13:23:52.000Z,17.59
2019-02-15T13:26:25.504Z,17.59
2019-02-15T13:28:58.976Z,17.52
2019-02-15T13:31:32.343Z,17.50
2019-02-15T13:34:05.692Z,17.47
2019-02-15T13:36:39.081Z,17.40
2019-02-15T13:39:12.502Z,17.59
2019-02-15T13:41:45.931Z,17.53
2019-02-15T13:44:19.354Z,17.55
2019-02-15T13:46:53.203Z,17.54
2019-02-15T13:49:26.638Z,17.48
2019-02-15T13:52:00.047Z,17.44
2019-02-15T13:54:33.550Z,17.38
2019-02-15T13:57:06.961Z,17.43
2019-02-15T13:59:40.435Z,17.47
2019-02-15T14:02:13.784Z,17.43
2019-02-15T14:04:47.266Z,17.36
2019-02-15T14:07:20.996Z,17.32
2019-02-15T14:09:54.408Z,17.19
2019-02-15T14:12:27.762Z,17.20
2019-02-15T14:15:01.196Z,17.17
2019-02-15T14:17:43.863Z,17.15
2019-02-15T14:20:12.882Z,17.16
2019-02-15T14:22:46.324Z,17.12
2019-02-15T14:25:19.928Z,17.13
2019-02-15T14:27:53.282Z,17.12
2019-02-15T14:30:26.820Z,17.06
2019-02-15T14:33:00.177Z,16.85
2019-02-15T14:35:33.576Z,16.89
2019-02-15T14:38:06.909Z,16.85
2019-02-15T14:40:40.285Z,16.81
2019-02-15T14:43:13.704Z,16.74
2019-02-15T14:45:47.098Z,16.79
2019-02-15T14:48:20.479Z,16.73
2019-02-15T14:50:53.872Z,16.74
2019-02-15T14:53:27.338Z,16.72
2019-02-15T14:56:00.731Z,16.72
2019-02-15T14:58:34.188Z,16.65
2019-02-15T15:01:07.581Z,16.60
2019-02-15T15:03:40.952Z,16.53
2019-02-15T15:06:14.370Z,16.51
2019-02-15T15:08:47.731Z,16.35
2019-02-15T15:11:21.157Z,16.29
2019-02-15T15:13:54.580Z,16.27
2019-02-15T15:16:27.904Z,16.30
2019-02-15T15:19:01.403Z,16.24
2019-02-15T15:21:35.068Z,16.15
2019-02-15T15:24:08.574Z,16.12
2019-02-15T15:26:41.954Z,16.04
2019-02-15T15:29:15.452Z,15.98
2019-02-15T15:31:48.788Z,15.95
2019-02-15T15:34:22.287Z,15.96
2019-02-15T15:36:55.607Z,15.80
2019-02-15T15:39:29.117Z,15.75
2019-02-15T15:42:02.513Z,15.64
2019-02-15T15:44:35.970Z,15.65
2019-02-15T15:47:09.571Z,15.64
2019-02-15T15:49:43.034Z,15.56
2019-02-15T15:52:16.377Z,15.51
2019-02-15T15:54:49.741Z,15.46
2019-02-15T15:57:23.159Z,15.41
2019-02-15T15:59:56.604Z,15.29
2019-02-15T16:02:29.949Z,15.16
2019-02-15T16:05:07.319Z,15.04
2019-02-15T16:07:40.734Z,14.95
2019-02-15T16:10:15.077Z,14.86
2019-02-15T16:12:48.526Z,14.76
2019-02-15T16:15:22.025Z,14.66
2019-02-15T16:17:55.418Z,14.55
2019-02-15T16:20:28.892Z,14.43
2019-02-15T16:23:02.295Z,14.29
2019-02-15T16:25:35.761Z,14.13
2019-02-15T16:28:09.221Z,13.97
2019-02-15T16:30:42.582Z,13.80
2019-02-15T16:33:15.942Z,13.61
2019-02-15T16:35:49.371Z,13.43
2019-02-15T16:38:22.765Z,13.27
2019-02-15T16:40:56.158Z,13.17
2019-02-15T16:43:29.491Z,13.08
2019-02-15T16:46:02.871Z,12.97
2019-02-15T16:48:42.074Z,12.84
2019-02-15T16:51:11.396Z,12.70
2019-02-15T16:53:44.716Z,12.57
2019-02-15T16:56:18.245Z,12.47
2019-02-15T16:58:51.669Z,12.36
2019-02-15T17:01:25.121Z,12.26
2019-02-15T17:03:58.565Z,12.12
2019-02-15T17:06:32.062Z,12.01
2019-02-15T17:09:07.221Z,11.87
2019-02-15T17:11:40.596Z,11.76
2019-02-15T17:14:14.116Z,11.64
2019-02-15T17:16:47.496Z,11.50
2019-02-15T17:19:20.904Z,11.35
2019-02-15T17:21:54.291Z,11.26
2019-02-15T17:24:27.637Z,11.07
2019-02-15T17:27:01.055Z,10.82
2019-02-15T17:29:34.470Z,10.66
2019-02-15T17:32:07.838Z,10.62
2019-02-15T17:34:41.302Z,10.57
2019-02-15T17:37:14.803Z,10.52
2019-02-15T17:39:48.246Z,10.43
2019-02-15T17:42:21.666Z,10.32
2019-02-15T17:44:55.000Z,10.21
2019-02-15T17:47:28.466Z,10.05
2019-02-15T17:50:01.821Z,9.98
2019-02-15T17:52:35.209Z,9.91
2019-02-15T17:55:09.972Z,9.83
2019-02-15T17:57:43.449Z,9.76
2019-02-15T18:00:18.571Z,9.67
2019-02-15T18:02:51.916Z,9.59
2019-02-15T18:05:25.320Z,9.47
2019-02-15T18:07:58.656Z,9.33
2019-02-15T18:10:32.102Z,9.27
2019-02-15T18:13:05.583Z,9.22
2019-02-15T18:15:39.034Z,9.18
2019-02-15T18:18:12.449Z,9.16
2019-02-15T18:20:45.901Z,9.06
2019-02-15T18:23:19.404Z,9.00
2019-02-15T18:25:52.898Z,8.90
2019-02-15T18:28:26.316Z,8.81
2019-02-15T18:30:59.669Z,8.74
2019-02-15T18:33:33.059Z,8.67
2019-02-15T18:36:06.485Z,8.62
2019-02-15T18:38:40.723Z,8.54
2019-02-15T18:41:14.279Z,8.49
2019-02-15T18:43:47.716Z,8.40
2019-02-15T18:46:21.062Z,8.36
2019-02-15T18:48:54.507Z,8.30
2019-02-15T18:51:27.996Z,8.27
2019-02-15T18:54:01.393Z,8.17
2019-02-15T18:56:34.754Z,8.14
2019-02-15T18:59:08.230Z,8.09
2019-02-15T19:01:41.588Z,8.07
2019-02-15T19:04:14.916Z,7.87
2019-02-15T19:06:48.317Z,7.77
2019-02-15T19:09:21.634Z,7.63
2019-02-15T19:11:55.069Z,7.62
2019-02-15T19:14:28.415Z,7.65
2019-02-15T19:17:01.779Z,7.67
2019-02-15T19:19:35.156Z,7.65
2019-02-15T19:22:08.657Z,7.63
2019-02-15T19:24:41.984Z,7.59
2019-02-15T19:27:15.368Z,7.55
2019-02-15T19:29:48.741Z,7.47
2019-02-15T19:32:22.107Z,7.38
2019-02-15T19:34:55.431Z,7.32
2019-02-15T19:37:28.850Z,7.29
2019-02-15T19:40:02.174Z,7.24
2019-02-15T19:42:35.574Z,7.20
2019-02-15T19:45:11.130Z,7.20
2019-02-15T19:47:44.508Z,7.22
2019-02-15T19:50:18.499Z,7.18
2019-02-15T19:52:51.965Z,7.03
2019-02-15T19:55:25.303Z,7.03
2019-02-15T19:57:58.729Z,6.83
2019-02-15T20:00:32.077Z,6.79
2019-02-15T20:03:05.841Z,6.81
2019-02-15T20:05:39.348Z,6.86
2019-02-15T20:08:13.252Z,6.88
2019-02-15T20:10:47.130Z,6.89
2019-02-15T20:13:20.675Z,6.91
2019-02-15T20:15:54.052Z,6.88
2019-02-15T20:18:27.481Z,6.79
2019-02-15T20:21:00.859Z,6.79
2019-02-15T20:23:34.206Z,6.73
2019-02-15T20:26:07.571Z,6.65
2019-02-15T20:28:41.002Z,6.65
2019-02-15T20:31:14.322Z,6.59
2019-02-15T20:33:47.683Z,6.49
2019-02-15T20:36:21.205Z,6.39
2019-02-15T20:38:54.627Z,6.28
2019-02-15T20:41:27.971Z,6.20
2019-02-15T20:44:01.515Z,6.15
2019-02-15T20:46:34.955Z,6.16
2019-02-15T20:49:08.302Z,6.14
2019-02-15T20:51:41.670Z,6.17
2019-02-15T20:54:15.113Z,6.15
2019-02-15T20:56:48.467Z,6.11
2019-02-15T20:59:21.815Z,6.06
2019-02-15T21:01:55.228Z,6.12
2019-02-15T21:04:28.550Z,6.15
2019-02-15T21:07:01.929Z,6.13
2019-02-15T21:09:35.360Z,6.10
2019-02-15T21:12:09.001Z,6.06
2019-02-15T21:14:42.483Z,6.03
2019-02-15T21:17:16.013Z,6.00
2019-02-15T21:19:49.630Z,5.94
2019-02-15T21:22:22.993Z,5.88
2019-02-15T21:24:56.332Z,5.83
2019-02-15T21:27:30.063Z,5.78
2019-02-15T21:30:12.839Z,5.75
2019-02-15T21:32:46.421Z,5.75
2019-02-15T21:35:19.877Z,5.77
2019-02-15T21:37:53.507Z,5.71
2019-02-15T21:40:26.971Z,5.69
2019-02-15T21:43:00.540Z,5.60
2019-02-15T21:45:33.948Z,5.57
2019-02-15T21:48:07.303Z,5.57
2019-02-15T21:50:40.636Z,5.52
2019-02-15T21:53:13.985Z,5.45
2019-02-15T21:55:47.464Z,5.35
2019-02-15T21:58:20.889Z,5.35
2019-02-15T22:00:54.210Z,5.39
2019-02-15T22:03:27.567Z,5.42
2019-02-15T22:06:00.895Z,5.39
2019-02-15T22:08:34.304Z,5.35
2019-02-15T22:11:07.617Z,5.33
2019-02-15T22:13:40.984Z,5.34
2019-02-15T22:16:14.322Z,5.34
2019-02-15T22:18:47.674Z,5.33
2019-02-15T22:21:21.048Z,5.21
2019-02-15T22:23:54.463Z,5.19
2019-02-15T22:26:27.928Z,5.11
2019-02-15T22:29:01.284Z,5.12
2019-02-15T22:31:34.705Z,5.10
2019-02-15T22:34:08.298Z,5.11
2019-02-15T22:36:41.733Z,5.09
2019-02-15T22:39:15.092Z,5.09
2019-02-15T22:41:48.443Z,5.08
2019-02-15T22:44:21.835Z,5.06
2019-02-15T22:46:55.160Z,4.87
2019-02-15T22:49:28.595Z,4.85
2019-02-15T22:52:02.023Z,4.84
2019-02-15T22:54:35.455Z,4.83
2019-02-15T22:57:08.886Z,4.81
2019-02-15T22:59:42.279Z,4.81
2019-02-15T23:02:15.837Z,4.81
2019-02-15T23:04:49.277Z,4.81
2019-02-15T23:07:22.621Z,4.79
2019-02-15T23:09:56.017Z,4.73
2019-02-15T23:12:29.349Z,4.67
2019-02-15T23:15:02.716Z,4.61
2019-02-15T23:17:36.157Z,4.55
2019-02-15T23:20:09.682Z,4.53
2019-02-15T23:22:43.028Z,4.53
2019-02-15T23:25:16.484Z,4.51
2019-02-15T23:27:49.840Z,4.41
2019-02-15T23:30:23.178Z,4.42
2019-02-15T23:32:56.531Z,4.41
2019-02-15T23:35:29.926Z,4.31
2019-02-15T23:38:03.309Z,4.30
2019-02-15T23:40:36.703Z,4.24
2019-02-15T23:43:10.117Z,4.22
2019-02-15T23:45:45.083Z,4.22
2019-02-15T23:48:18.561Z,4.29
2019-02-15T23:50:54.949Z,4.28
2019-02-15T23:53:27.247Z,4.21
2019-02-15T23:56:00.586Z,4.16
2019-02-15T23:58:34.024Z,4.09
